Buoy 43563

sailwx.info

Track history (hours):
 
Tides and Currents Weather Stations Pressure Air Temp Water Temp Dewpoint Dewpoint Depression Visibility Wind Speed Wind Dir Waves Ship Positions

Drifting buoy 43563

Last reported at 2015-Jun-30 09:40 UTC. Time now 2015-Jun-30 14:30 UTC.
Position N 26°01' W 080°03'.

Barometer 1019.4 mb
Water temperature 29.1 ° C

Date/timePositionNaut miles runAvg speedWind from/ knotsBaromVisibWave heightAir tempDewpointWater temp
2015-Jun-30 09:40N 26°01' W 080°03'7 8.4 1019.4 29.1
2015-Jun-30 08:50N 25°54' W 080°03'13 2.1 1019.3 29.1
2015-Jun-30 02:50N 25°41' W 080°04'2 2.3 1020.4 29.2
2015-Jun-30 01:50N 25°39' W 080°05'5 5.0 1020.1 29.2
2015-Jun-30 00:50N 25°34' W 080°05'23 2.1 1019.5 29.2
2015-Jun-29 13:50N 25°11' W 080°11'8 1.7 1019.7 29.2
2015-Jun-29 08:50N 25°04' W 080°16'0 0.0 1017.9 29.2
2015-Jun-29 07:50N 25°04' W 080°16'8 0.8 1018.1 29.3
2015-Jun-28 22:50N 24°58' W 080°20'4 0.9 1018.1 30.3
2015-Jun-28 18:50N 24°55' W 080°23'3 0.9 1018.7 30.4
2015-Jun-28 15:50N 24°53' W 080°26'1 1.1 1019.4 29.3
2015-Jun-28 14:40N 24°52' W 080°27'3 0.6 1019.3 29.2
2015-Jun-28 09:50N 24°50' W 080°29'0 0.4 1017.3 29.1
2015-Jun-28 08:50N 24°51' W 080°29'4 1.3 1017.4 29.1
2015-Jun-28 05:50N 24°48' W 080°32'2 0.3 1018.2 29.1
2015-Jun-27 22:50N 24°47' W 080°34'1 1.2 1018.1 29.5
2015-Jun-27 21:50N 24°46' W 080°35'1 0.8 1018.1 29.4
2015-Jun-27 20:50N 24°45' W 080°35'2 1.4 1018.1 29.4
2015-Jun-27 19:40N 24°44' W 080°36'7 0.8 1018.8 29.2
2015-Jun-27 11:40N 24°41' W 080°43'1 1.7 1018.3 29.2
2015-Jun-27 10:50N 24°41' W 080°44'2 0.7 1017.9 29.2
2015-Jun-27 07:50N 24°39' W 080°46'4 2.0 1017.3 29.2
2015-Jun-27 05:50N 24°37' W 080°50'0 0.0 1018.8 29.3
2015-Jun-27 04:50N 24°37' W 080°50'2 0.5 1018.7 29.4
2015-Jun-27 00:50N 24°36' W 080°51'3 0.9 1019.0 29.7
2015-Jun-26 21:50N 24°34' W 080°54'0 0.0 1018.3 30.5
2015-Jun-26 20:50N 24°34' W 080°54'7 1.1 1018.5 30.3
2015-Jun-26 14:50N 24°32' W 081°01'2 2.4 1020.1 28.9
2015-Jun-26 13:50N 24°32' W 081°03'1 0.3 1020.2 28.8
2015-Jun-26 11:40N 24°32' W 081°04'1 1.4 1018.7 28.8
2015-Jun-26 10:40N 24°31' W 081°05'3 3.1 1017.9 28.8
2015-Jun-26 09:50N 24°30' W 081°08'0 0.1 1017.1 28.9
2015-Jun-26 08:50N 24°30' W 081°08'2 1.7 1017.3 29.0
2015-Jun-26 07:50N 24°29' W 081°09'2 1.2 1017.7 29.0
2015-Jun-26 05:50N 24°27' W 081°11'2 0.8 1019.0 29.1
2015-Jun-26 03:50N 24°27' W 081°13'0 0.0 1019.8 29.1
2015-Jun-26 02:50N 24°27' W 081°13'1 0.5 1019.6 29.1
2015-Jun-25 23:50N 24°26' W 081°14'2 1.3 1018.4 29.2
2015-Jun-25 22:40N 24°26' W 081°16'1 1.0 1017.9 29.4
2015-Jun-25 21:50N 24°26' W 081°17'1 0.8 1017.8 29.6
2015-Jun-25 20:50N 24°25' W 081°17'0 0.0 1018.4 29.5
2015-Jun-25 18:50N 24°25' W 081°17'2 1.7 1019.4 29.2
2015-Jun-25 17:40N 24°25' W 081°20'3 3.6 1020.3 29.0
2015-Jun-25 16:50N 24°25' W 081°23'0 0.0 1020.6 29.0
2015-Jun-25 14:50N 24°25' W 081°23'5 4.8 1020.9 28.9
2015-Jun-25 13:50N 24°24' W 081°28'0 0.0 1020.7 28.8
2015-Jun-25 11:40N 24°24' W 081°28'2 2.3 1020.2 28.8
2015-Jun-25 10:50N 24°23' W 081°30'0 0.0 1019.6 28.8
2015-Jun-25 09:50N 24°23' W 081°30'3 1.7 1019.0 28.8
2015-Jun-25 07:50N 24°21' W 081°33'0 0.0 1018.8 28.8
2015-Jun-25 05:50N 24°21' W 081°33'2 1.8 1019.7 28.9
2015-Jun-25 04:50N 24°20' W 081°35'3 1.6 1020.1 28.9
2015-Jun-25 02:50N 24°19' W 081°38'0 0.0 1019.8 29.0
2015-Jun-25 01:50N 24°19' W 081°38'2 0.7 1019.5 29.1
2015-Jun-24 22:40N 24°19' W 081°41'0 0.2 1019.0 29.2
2015-Jun-24 21:50N 24°19' W 081°40'2 2.0 1019.2 29.1
2015-Jun-24 20:40N 24°19' W 081°43'1 1.3 1019.3 29.2
2015-Jun-24 19:50N 24°19' W 081°44'2 2.2 1020.1 29.2
2015-Jun-24 18:50N 24°18' W 081°47'6 1.1 1020.6 29.1
2015-Jun-24 13:50N 24°18' W 081°53'5 1.6 1020.5 28.7
2015-Jun-24 10:50N 24°16' W 081°58'1 0.5 1019.1 28.7
2015-Jun-24 09:50N 24°16' W 081°58'4 2.0 1018.6 28.7
2015-Jun-24 07:50N 24°15' W 082°02'13 1.2 1019.1 28.8
2015-Jun-23 20:50N 24°13' W 082°17'0 0.0 1018.4 28.9
2015-Jun-23 19:50N 24°13' W 082°17'6 1.4 1019.0 28.9
2015-Jun-23 15:50N 24°13' W 082°23'1 1.4 1020.6 28.7
2015-Jun-23 14:50N 24°13' W 082°24'6 2.1 1020.9 28.7
2015-Jun-23 11:50N 24°14' W 082°31'   1019.6 28.7
Track history (hours):
 
Tides and Currents Weather Stations Pressure Air Temp Water Temp Dewpoint Dewpoint Depression Visibility Wind Speed Wind Dir Waves Ship Positions

Drifting buoy 43563

Last reported at 2015-Jun-30 09:40 UTC. Time now 2015-Jun-30 14:30 UTC.
Position N 26°01' W 080°03'.

Barometer 1019.4 mb
Water temperature 29.1 ° C

Date/timePositionNaut miles runAvg speedWind from/ knotsBaromVisibWave heightAir tempDewpointWater temp
2015-Jun-30 09:40N 26°01' W 080°03'7 8.4 1019.4 29.1
2015-Jun-30 08:50N 25°54' W 080°03'13 2.1 1019.3 29.1
2015-Jun-30 02:50N 25°41' W 080°04'2 2.3 1020.4 29.2
2015-Jun-30 01:50N 25°39' W 080°05'5 5.0 1020.1 29.2
2015-Jun-30 00:50N 25°34' W 080°05'23 2.1 1019.5 29.2
2015-Jun-29 13:50N 25°11' W 080°11'8 1.7 1019.7 29.2
2015-Jun-29 08:50N 25°04' W 080°16'0 0.0 1017.9 29.2
2015-Jun-29 07:50N 25°04' W 080°16'8 0.8 1018.1 29.3
2015-Jun-28 22:50N 24°58' W 080°20'4 0.9 1018.1 30.3
2015-Jun-28 18:50N 24°55' W 080°23'3 0.9 1018.7 30.4
2015-Jun-28 15:50N 24°53' W 080°26'1 1.1 1019.4 29.3
2015-Jun-28 14:40N 24°52' W 080°27'3 0.6 1019.3 29.2
2015-Jun-28 09:50N 24°50' W 080°29'0 0.4 1017.3 29.1
2015-Jun-28 08:50N 24°51' W 080°29'4 1.3 1017.4 29.1
2015-Jun-28 05:50N 24°48' W 080°32'2 0.3 1018.2 29.1
2015-Jun-27 22:50N 24°47' W 080°34'1 1.2 1018.1 29.5
2015-Jun-27 21:50N 24°46' W 080°35'1 0.8 1018.1 29.4
2015-Jun-27 20:50N 24°45' W 080°35'2 1.4 1018.1 29.4
2015-Jun-27 19:40N 24°44' W 080°36'7 0.8 1018.8 29.2
2015-Jun-27 11:40N 24°41' W 080°43'1 1.7 1018.3 29.2
2015-Jun-27 10:50N 24°41' W 080°44'2 0.7 1017.9 29.2
2015-Jun-27 07:50N 24°39' W 080°46'4 2.0 1017.3 29.2
2015-Jun-27 05:50N 24°37' W 080°50'0 0.0 1018.8 29.3
2015-Jun-27 04:50N 24°37' W 080°50'2 0.5 1018.7 29.4
2015-Jun-27 00:50N 24°36' W 080°51'3 0.9 1019.0 29.7
2015-Jun-26 21:50N 24°34' W 080°54'0 0.0 1018.3 30.5
2015-Jun-26 20:50N 24°34' W 080°54'7 1.1 1018.5 30.3
2015-Jun-26 14:50N 24°32' W 081°01'2 2.4 1020.1 28.9
2015-Jun-26 13:50N 24°32' W 081°03'1 0.3 1020.2 28.8
2015-Jun-26 11:40N 24°32' W 081°04'1 1.4 1018.7 28.8
2015-Jun-26 10:40N 24°31' W 081°05'3 3.1 1017.9 28.8
2015-Jun-26 09:50N 24°30' W 081°08'0 0.1 1017.1 28.9
2015-Jun-26 08:50N 24°30' W 081°08'2 1.7 1017.3 29.0
2015-Jun-26 07:50N 24°29' W 081°09'2 1.2 1017.7 29.0
2015-Jun-26 05:50N 24°27' W 081°11'2 0.8 1019.0 29.1
2015-Jun-26 03:50N 24°27' W 081°13'0 0.0 1019.8 29.1
2015-Jun-26 02:50N 24°27' W 081°13'1 0.5 1019.6 29.1
2015-Jun-25 23:50N 24°26' W 081°14'2 1.3 1018.4 29.2
2015-Jun-25 22:40N 24°26' W 081°16'1 1.0 1017.9 29.4
2015-Jun-25 21:50N 24°26' W 081°17'1 0.8 1017.8 29.6
2015-Jun-25 20:50N 24°25' W 081°17'0 0.0 1018.4 29.5
2015-Jun-25 18:50N 24°25' W 081°17'2 1.7 1019.4 29.2
2015-Jun-25 17:40N 24°25' W 081°20'3 3.6 1020.3 29.0
2015-Jun-25 16:50N 24°25' W 081°23'0 0.0 1020.6 29.0
2015-Jun-25 14:50N 24°25' W 081°23'5 4.8 1020.9 28.9
2015-Jun-25 13:50N 24°24' W 081°28'0 0.0 1020.7 28.8
2015-Jun-25 11:40N 24°24' W 081°28'2 2.3 1020.2 28.8
2015-Jun-25 10:50N 24°23' W 081°30'0 0.0 1019.6 28.8
2015-Jun-25 09:50N 24°23' W 081°30'3 1.7 1019.0 28.8
2015-Jun-25 07:50N 24°21' W 081°33'0 0.0 1018.8 28.8
2015-Jun-25 05:50N 24°21' W 081°33'2 1.8 1019.7 28.9
2015-Jun-25 04:50N 24°20' W 081°35'3 1.6 1020.1 28.9
2015-Jun-25 02:50N 24°19' W 081°38'0 0.0 1019.8 29.0
2015-Jun-25 01:50N 24°19' W 081°38'2 0.7 1019.5 29.1
2015-Jun-24 22:40N 24°19' W 081°41'0 0.2 1019.0 29.2
2015-Jun-24 21:50N 24°19' W 081°40'2 2.0 1019.2 29.1
2015-Jun-24 20:40N 24°19' W 081°43'1 1.3 1019.3 29.2
2015-Jun-24 19:50N 24°19' W 081°44'2 2.2 1020.1 29.2
2015-Jun-24 18:50N 24°18' W 081°47'6 1.1 1020.6 29.1
2015-Jun-24 13:50N 24°18' W 081°53'5 1.6 1020.5 28.7
2015-Jun-24 10:50N 24°16' W 081°58'1 0.5 1019.1 28.7
2015-Jun-24 09:50N 24°16' W 081°58'4 2.0 1018.6 28.7
2015-Jun-24 07:50N 24°15' W 082°02'13 1.2 1019.1 28.8
2015-Jun-23 20:50N 24°13' W 082°17'0 0.0 1018.4 28.9
2015-Jun-23 19:50N 24°13' W 082°17'6 1.4 1019.0 28.9
2015-Jun-23 15:50N 24°13' W 082°23'1 1.4 1020.6 28.7
2015-Jun-23 14:50N 24°13' W 082°24'6 2.1 1020.9 28.7
2015-Jun-23 11:50N 24°14' W 082°31'   1019.6 28.7

Dump ship's entire track history